Terminal Aerodrome Forecast
Issued by NWS Jacksonville, FL

Home | Current Version | Previous Version | Text Only | Print | Product List | Glossary On
Versions: 1 2 3 4 5 6 7 8 9 10 11 12 13 14 15 16 17 18 19 20 21 22 23 24 25 26 27 28 29 30 31
296
FTUS42 KJAX 231544 AAG
TAFJAX
TAF AMD
KJAX 231544Z 2316/2412 17012KT 4SM -SHRA SCT006 BKN015 OVC100
      TEMPO 2316/2318 VRB14G24KT 2SM TSRA BKN006 OVC015CB
     FM231800 18011G18KT P6SM VCTS BKN030CB BKN090
      TEMPO 2318/2322 3SM TSRA OVC025CB
     FM240100 17010KT P6SM VCSH OVC020
     FM240800 22005KT P6SM BKN025=

USA.gov is the U.S. government's official web portal to all federal, state and local government web resources and services.